createdAt,value
2018-07-25T00:01:48.810Z,21.50
2018-07-25T00:04:16.502Z,21.39
2018-07-25T00:06:44.208Z,21.49
2018-07-25T00:09:11.932Z,21.36
2018-07-25T00:11:39.716Z,21.41
2018-07-25T00:14:07.576Z,21.43
2018-07-25T00:16:35.806Z,21.46
2018-07-25T00:19:03.601Z,21.30
2018-07-25T00:21:31.350Z,21.35
2018-07-25T00:23:59.136Z,21.27
2018-07-25T00:26:26.943Z,21.29
2018-07-25T00:28:54.633Z,21.34
2018-07-25T00:31:22.364Z,21.29
2018-07-25T00:33:50.032Z,21.32
2018-07-25T00:36:17.745Z,21.23
2018-07-25T00:38:45.430Z,21.16
2018-07-25T00:41:13.113Z,21.16
2018-07-25T00:43:40.802Z,21.21
2018-07-25T00:46:08.693Z,21.21
2018-07-25T00:48:36.438Z,21.18
2018-07-25T00:51:04.138Z,21.16
2018-07-25T00:53:31.818Z,21.16
2018-07-25T00:55:59.505Z,21.22
2018-07-25T00:58:27.188Z,21.19
2018-07-25T01:00:54.894Z,21.18
2018-07-25T01:03:22.561Z,21.16
2018-07-25T01:05:50.231Z,21.02
2018-07-25T01:08:17.930Z,21.10
2018-07-25T01:10:45.645Z,21.17
2018-07-25T01:13:13.344Z,21.05
2018-07-25T01:15:41.465Z,21.13
2018-07-25T01:18:09.186Z,21.03
2018-07-25T01:20:36.860Z,21.12
2018-07-25T01:23:04.543Z,20.94
2018-07-25T01:25:32.234Z,21.05
2018-07-25T01:27:59.915Z,21.09
2018-07-25T01:30:27.673Z,20.97
2018-07-25T01:32:55.344Z,20.99
2018-07-25T01:35:23.031Z,20.90
2018-07-25T01:37:50.726Z,20.80
2018-07-25T01:40:18.400Z,20.77
2018-07-25T01:42:46.097Z,20.72
2018-07-25T01:45:13.815Z,20.77
2018-07-25T01:47:41.493Z,20.66
2018-07-25T01:50:09.215Z,20.71
2018-07-25T01:52:37.076Z,20.83
2018-07-25T01:55:06.085Z,20.71
2018-07-25T01:57:33.820Z,20.79
2018-07-25T02:00:01.529Z,20.83
2018-07-25T02:02:29.201Z,20.70
2018-07-25T02:04:56.873Z,20.82
2018-07-25T02:07:24.606Z,20.94
2018-07-25T02:09:52.560Z,20.85
2018-07-25T02:12:20.265Z,20.84
2018-07-25T02:14:47.982Z,20.83
2018-07-25T02:17:15.744Z,20.87
2018-07-25T02:19:43.438Z,20.89
2018-07-25T02:22:11.120Z,20.91
2018-07-25T02:24:38.800Z,20.96
2018-07-25T02:27:06.627Z,20.88
2018-07-25T02:29:34.332Z,20.80
2018-07-25T02:32:02.414Z,20.86
2018-07-25T02:34:30.080Z,20.79
2018-07-25T02:36:57.771Z,20.90
2018-07-25T02:39:25.468Z,20.97
2018-07-25T02:41:53.141Z,20.97
2018-07-25T02:44:20.904Z,20.92
2018-07-25T02:46:48.601Z,20.85
2018-07-25T02:49:16.292Z,20.88
2018-07-25T02:51:44.009Z,20.73
2018-07-25T02:54:11.700Z,20.88
2018-07-25T02:56:39.421Z,20.89
2018-07-25T02:59:07.125Z,20.89
2018-07-25T03:01:34.814Z,20.85
2018-07-25T03:04:02.545Z,20.94
2018-07-25T03:06:30.302Z,20.92
2018-07-25T03:08:58.049Z,20.85
2018-07-25T03:11:25.866Z,20.81
2018-07-25T03:13:53.556Z,20.87
2018-07-25T03:16:21.316Z,20.94
2018-07-25T03:18:49.013Z,20.98
2018-07-25T03:21:16.726Z,20.86
2018-07-25T03:23:44.414Z,20.90
2018-07-25T03:26:12.133Z,20.85
2018-07-25T03:28:39.799Z,20.80
2018-07-25T03:31:07.512Z,20.89
2018-07-25T03:33:35.218Z,20.78
2018-07-25T03:36:02.968Z,20.76
2018-07-25T03:38:30.712Z,20.78
2018-07-25T03:40:58.472Z,20.69
2018-07-25T03:43:26.206Z,20.64
2018-07-25T03:45:53.984Z,20.70
2018-07-25T03:48:21.681Z,20.83
2018-07-25T03:50:49.361Z,20.97
2018-07-25T03:53:17.097Z,20.90
2018-07-25T03:55:44.786Z,20.87
2018-07-25T03:58:12.478Z,20.71
2018-07-25T04:00:40.169Z,20.82
2018-07-25T04:03:07.941Z,20.84
2018-07-25T04:05:35.656Z,20.91
2018-07-25T04:08:03.434Z,21.01
2018-07-25T04:10:31.191Z,21.07
2018-07-25T04:12:58.902Z,21.07
2018-07-25T04:15:26.721Z,21.03
2018-07-25T04:17:54.593Z,21.15
2018-07-25T04:20:22.317Z,21.18
2018-07-25T04:22:50.061Z,21.19
2018-07-25T04:25:17.750Z,21.15
2018-07-25T04:27:46.250Z,21.24
2018-07-25T04:30:15.978Z,21.35
2018-07-25T04:32:44.258Z,20.76
2018-07-25T04:35:13.038Z,21.31
2018-07-25T04:37:41.186Z,21.33
2018-07-25T04:40:08.990Z,21.34
2018-07-25T04:42:36.902Z,21.46
2018-07-25T04:45:05.505Z,21.57
2018-07-25T04:47:33.222Z,21.71
2018-07-25T04:50:00.997Z,21.74
2018-07-25T04:52:28.737Z,21.68
2018-07-25T04:54:56.476Z,21.60
2018-07-25T04:57:24.206Z,21.43
2018-07-25T04:59:51.967Z,21.52
2018-07-25T05:02:19.685Z,21.61
2018-07-25T05:04:47.387Z,21.60
2018-07-25T05:07:15.098Z,21.68
2018-07-25T05:09:42.983Z,21.76
2018-07-25T05:12:10.731Z,21.79
2018-07-25T05:14:38.448Z,21.81
2018-07-25T05:17:06.226Z,19.87
2018-07-25T05:19:33.933Z,21.83
2018-07-25T05:22:01.639Z,21.96
2018-07-25T05:24:29.361Z,22.01
2018-07-25T05:26:57.072Z,21.99
2018-07-25T05:29:24.976Z,22.00
2018-07-25T05:31:52.689Z,21.96
2018-07-25T05:34:20.447Z,21.94
2018-07-25T05:36:48.162Z,22.06
2018-07-25T05:39:15.872Z,21.48
2018-07-25T05:41:43.544Z,22.37
2018-07-25T05:44:11.243Z,22.34
2018-07-25T05:46:39.235Z,22.34
2018-07-25T05:49:06.996Z,22.33
2018-07-25T05:51:35.783Z,22.35
2018-07-25T05:54:03.647Z,22.40
2018-07-25T05:56:31.527Z,22.39
2018-07-25T05:58:59.765Z,22.41
2018-07-25T06:01:27.659Z,22.42
2018-07-25T06:03:55.449Z,22.44
2018-07-25T06:06:23.285Z,22.39
2018-07-25T06:08:51.180Z,22.39
2018-07-25T06:11:18.945Z,22.32
2018-07-25T06:13:46.644Z,22.41
2018-07-25T06:16:14.350Z,22.52
2018-07-25T06:18:42.172Z,22.56
2018-07-25T06:21:09.934Z,22.58
2018-07-25T06:23:37.736Z,22.11
2018-07-25T06:26:05.664Z,22.65
2018-07-25T06:28:33.367Z,22.68
2018-07-25T06:31:01.131Z,22.70
2018-07-25T06:33:28.843Z,22.72
2018-07-25T06:35:56.528Z,22.71
2018-07-25T06:38:24.232Z,22.73
2018-07-25T06:40:51.926Z,22.75
2018-07-25T06:43:19.676Z,22.68
2018-07-25T06:45:47.357Z,22.75
2018-07-25T06:48:15.359Z,22.74
2018-07-25T06:50:43.115Z,22.78
2018-07-25T06:53:10.816Z,22.79
2018-07-25T06:55:38.517Z,22.81
2018-07-25T06:58:06.224Z,22.81
2018-07-25T07:00:33.921Z,22.85
2018-07-25T07:03:01.616Z,22.85
2018-07-25T07:05:29.365Z,22.87
2018-07-25T07:07:57.061Z,22.90
2018-07-25T07:10:24.782Z,22.95
2018-07-25T07:12:52.534Z,22.96
2018-07-25T07:15:20.279Z,22.98
2018-07-25T07:17:48.078Z,23.00
2018-07-25T07:20:15.811Z,23.05
2018-07-25T07:22:43.547Z,23.07
2018-07-25T07:25:11.291Z,23.08
2018-07-25T07:27:39.044Z,23.10
2018-07-25T07:30:07.142Z,23.12
2018-07-25T07:32:35.017Z,23.14
2018-07-25T07:35:02.967Z,23.16
2018-07-25T07:37:30.998Z,23.21
2018-07-25T07:39:58.660Z,23.19
2018-07-25T07:42:26.369Z,23.17
2018-07-25T07:44:54.165Z,23.15
2018-07-25T07:47:22.042Z,23.17
2018-07-25T07:49:49.728Z,23.18
2018-07-25T07:52:17.522Z,23.18
2018-07-25T07:54:45.426Z,23.21
2018-07-25T07:57:13.144Z,23.25
2018-07-25T07:59:40.872Z,23.28
2018-07-25T08:02:08.655Z,23.29
2018-07-25T08:04:36.439Z,23.30
2018-07-25T08:07:04.187Z,23.32
2018-07-25T08:09:31.903Z,23.32
2018-07-25T08:11:59.634Z,23.35
2018-07-25T08:14:27.365Z,23.35
2018-07-25T08:16:55.059Z,23.35
2018-07-25T08:19:22.774Z,23.36
2018-07-25T08:21:50.492Z,23.38
2018-07-25T08:24:18.196Z,23.38
2018-07-25T08:26:45.938Z,23.39
2018-07-25T08:29:13.676Z,23.39
2018-07-25T08:31:41.343Z,23.39
2018-07-25T08:34:09.048Z,23.43
2018-07-25T08:36:36.739Z,23.44
2018-07-25T08:39:07.521Z,23.45
2018-07-25T08:41:35.302Z,23.45
2018-07-25T08:44:03.694Z,23.50
2018-07-25T08:46:31.402Z,23.50
2018-07-25T08:48:59.162Z,23.49
2018-07-25T08:51:26.867Z,23.49
2018-07-25T08:53:54.579Z,23.47
2018-07-25T08:56:22.299Z,23.51
2018-07-25T08:58:50.022Z,23.49
2018-07-25T09:01:17.778Z,23.58
2018-07-25T09:03:45.505Z,23.57
2018-07-25T09:06:13.429Z,23.56
2018-07-25T09:08:41.151Z,23.58
2018-07-25T09:11:08.863Z,23.63
2018-07-25T09:13:36.658Z,23.66
2018-07-25T09:16:04.437Z,23.69
2018-07-25T09:18:32.240Z,23.69
2018-07-25T09:21:00.035Z,23.67
2018-07-25T09:23:27.769Z,23.69
2018-07-25T09:25:55.495Z,23.75
2018-07-25T09:28:23.202Z,23.77
2018-07-25T09:30:50.998Z,23.77
2018-07-25T09:33:18.772Z,23.79
2018-07-25T09:35:46.718Z,23.80
2018-07-25T09:38:14.470Z,23.82
2018-07-25T09:40:42.226Z,23.83
2018-07-25T09:43:10.020Z,23.85
2018-07-25T09:45:37.842Z,23.85
2018-07-25T09:48:05.614Z,23.90
2018-07-25T09:50:33.366Z,23.99
2018-07-25T09:53:01.186Z,23.96
2018-07-25T09:55:28.940Z,23.94
2018-07-25T09:57:56.702Z,23.93
2018-07-25T10:00:29.924Z,23.99
2018-07-25T10:02:57.665Z,24.06
2018-07-25T10:05:25.448Z,24.10
2018-07-25T10:07:53.256Z,24.11
2018-07-25T10:10:21.016Z,24.15
2018-07-25T10:12:48.762Z,24.21
2018-07-25T10:15:16.613Z,24.21
2018-07-25T10:17:44.306Z,24.21
2018-07-25T10:20:12.146Z,24.24
2018-07-25T10:22:39.944Z,24.23
2018-07-25T10:25:07.727Z,24.27
2018-07-25T10:27:35.522Z,24.35
2018-07-25T10:30:03.425Z,24.43
2018-07-25T10:32:31.218Z,24.38
2018-07-25T10:34:58.974Z,24.47
2018-07-25T10:37:26.744Z,24.54
2018-07-25T10:39:54.558Z,24.52
2018-07-25T10:42:22.320Z,24.55
2018-07-25T10:44:50.046Z,24.59
2018-07-25T10:47:17.822Z,24.65
2018-07-25T10:49:45.604Z,24.68
2018-07-25T10:52:13.449Z,24.62
2018-07-25T10:54:41.190Z,24.67
2018-07-25T10:57:08.970Z,24.73
2018-07-25T10:59:36.741Z,24.72
2018-07-25T11:02:04.551Z,24.74
2018-07-25T11:04:32.341Z,24.78
2018-07-25T11:07:00.130Z,24.77
2018-07-25T11:09:27.857Z,24.84
2018-07-25T11:11:55.605Z,24.91
2018-07-25T11:14:23.375Z,24.89
2018-07-25T11:16:51.155Z,24.89
2018-07-25T11:19:18.928Z,24.97
2018-07-25T11:21:46.727Z,24.98
2018-07-25T11:24:14.482Z,24.95
2018-07-25T11:26:42.428Z,24.96
2018-07-25T11:29:10.223Z,25.05
2018-07-25T11:31:37.972Z,25.04
2018-07-25T11:34:05.746Z,25.06
2018-07-25T11:36:33.505Z,25.04
2018-07-25T11:39:01.344Z,25.09
2018-07-25T11:41:29.081Z,25.12
2018-07-25T11:43:56.883Z,25.17
2018-07-25T11:46:24.602Z,25.22
2018-07-25T11:48:52.341Z,25.19
2018-07-25T11:51:20.099Z,25.24
2018-07-25T11:53:47.875Z,25.30
2018-07-25T11:56:15.654Z,25.26
2018-07-25T11:58:43.330Z,25.36
2018-07-25T12:01:11.115Z,25.34
2018-07-25T12:03:38.794Z,25.31
2018-07-25T12:06:06.662Z,25.32
2018-07-25T12:08:34.414Z,25.36
2018-07-25T12:11:02.217Z,25.41
2018-07-25T12:13:30.021Z,25.51
2018-07-25T12:15:57.849Z,25.45
2018-07-25T12:18:25.574Z,25.54
2018-07-25T12:20:53.334Z,25.50
2018-07-25T12:23:24.044Z,25.50
2018-07-25T12:25:51.798Z,25.46
2018-07-25T12:28:20.196Z,25.41
2018-07-25T12:30:47.993Z,25.36
2018-07-25T12:33:16.122Z,25.46
2018-07-25T12:35:43.874Z,25.41
2018-07-25T12:38:11.628Z,25.49
2018-07-25T12:40:39.393Z,25.54
2018-07-25T12:43:07.199Z,25.55
2018-07-25T12:45:35.162Z,25.52
2018-07-25T12:48:02.973Z,25.56
2018-07-25T12:50:30.942Z,23.77
2018-07-25T12:52:58.826Z,25.56
2018-07-25T12:55:26.946Z,25.61
2018-07-25T12:57:54.835Z,25.63
2018-07-25T13:00:22.711Z,25.63
2018-07-25T13:02:50.579Z,25.68
2018-07-25T13:05:18.511Z,25.68
2018-07-25T13:07:46.567Z,25.64
2018-07-25T13:10:14.375Z,25.63
2018-07-25T13:12:42.524Z,25.64
2018-07-25T13:15:10.608Z,25.73
2018-07-25T13:17:38.468Z,25.83
2018-07-25T13:20:06.502Z,25.81
2018-07-25T13:22:34.367Z,25.81
2018-07-25T13:25:02.116Z,25.87
2018-07-25T13:27:29.962Z,25.95
2018-07-25T13:29:57.977Z,25.91
2018-07-25T13:32:25.787Z,25.86
2018-07-25T13:34:53.577Z,25.84
2018-07-25T13:37:21.425Z,25.83
2018-07-25T13:39:49.272Z,25.77
2018-07-25T13:42:17.238Z,25.84
2018-07-25T13:44:45.392Z,25.81
2018-07-25T13:47:13.201Z,25.90
2018-07-25T13:49:41.604Z,25.91
2018-07-25T13:52:09.558Z,25.90
2018-07-25T13:54:37.436Z,25.91
2018-07-25T13:57:05.359Z,25.95
2018-07-25T13:59:33.526Z,25.92
2018-07-25T14:02:01.346Z,25.99
2018-07-25T14:04:29.224Z,25.96
2018-07-25T14:06:57.059Z,26.00
2018-07-25T14:09:24.984Z,25.96
2018-07-25T14:11:53.916Z,25.92
2018-07-25T14:14:21.837Z,25.95
2018-07-25T14:16:49.698Z,25.94
2018-07-25T14:19:18.110Z,26.06
2018-07-25T14:21:46.227Z,26.15
2018-07-25T14:24:14.061Z,26.12
2018-07-25T14:26:41.947Z,26.12
2018-07-25T14:29:10.301Z,26.11
2018-07-25T14:31:38.392Z,25.70
2018-07-25T14:34:06.235Z,26.22
2018-07-25T14:36:34.314Z,26.30
2018-07-25T14:39:02.203Z,26.28
2018-07-25T14:41:30.271Z,25.91
2018-07-25T14:43:58.173Z,26.15
2018-07-25T14:46:25.971Z,26.24
2018-07-25T14:48:53.765Z,26.22
2018-07-25T14:51:21.757Z,26.03
2018-07-25T14:53:49.519Z,26.23
2018-07-25T14:56:17.665Z,26.35
2018-07-25T14:58:45.514Z,26.35
2018-07-25T15:01:13.375Z,26.41
2018-07-25T15:03:41.174Z,26.41
2018-07-25T15:06:08.998Z,26.47
2018-07-25T15:08:37.094Z,26.47
2018-07-25T15:11:04.907Z,26.53
2018-07-25T15:13:33.071Z,26.57
2018-07-25T15:16:01.012Z,26.61
2018-07-25T15:18:28.870Z,26.57
2018-07-25T15:20:56.649Z,26.58
2018-07-25T15:23:35.591Z,26.58
2018-07-25T15:26:03.723Z,26.61
2018-07-25T15:28:31.725Z,26.57
2018-07-25T15:30:59.654Z,26.59
2018-07-25T15:33:27.703Z,26.59
2018-07-25T15:35:55.545Z,26.62
2018-07-25T15:38:23.355Z,26.63
2018-07-25T15:40:51.199Z,26.63
2018-07-25T15:43:18.957Z,26.63
2018-07-25T15:45:47.001Z,26.67
2018-07-25T15:48:14.794Z,26.63
2018-07-25T15:50:42.519Z,26.64
2018-07-25T15:53:10.328Z,26.67
2018-07-25T15:55:38.147Z,26.72
2018-07-25T15:58:06.078Z,26.73
2018-07-25T16:00:33.949Z,26.77
2018-07-25T16:03:02.082Z,26.73
2018-07-25T16:05:29.870Z,26.74
2018-07-25T16:07:57.629Z,26.78
2018-07-25T16:10:25.565Z,26.76
2018-07-25T16:12:53.479Z,26.76
2018-07-25T16:15:21.369Z,26.79
2018-07-25T16:17:49.157Z,26.79
2018-07-25T16:20:17.184Z,26.76
2018-07-25T16:22:45.105Z,26.70
2018-07-25T16:25:12.894Z,26.71
2018-07-25T16:27:40.682Z,26.84
2018-07-25T16:30:08.564Z,26.78
2018-07-25T16:32:36.387Z,26.71
2018-07-25T16:35:04.693Z,26.86
2018-07-25T16:37:32.489Z,26.88
2018-07-25T16:40:00.262Z,26.87
2018-07-25T16:42:28.080Z,26.85
2018-07-25T16:44:55.875Z,26.85
2018-07-25T16:47:23.869Z,26.90
2018-07-25T16:49:51.917Z,26.82
2018-07-25T16:52:19.888Z,26.77
2018-07-25T16:54:48.163Z,26.78
2018-07-25T16:57:16.299Z,26.62
2018-07-25T16:59:44.101Z,26.84
2018-07-25T17:02:12.268Z,26.86
2018-07-25T17:04:40.271Z,26.83
2018-07-25T17:07:08.184Z,26.82
2018-07-25T17:09:36.015Z,26.86
2018-07-25T17:12:03.872Z,26.87
2018-07-25T17:14:31.697Z,26.91
2018-07-25T17:16:59.506Z,26.89
2018-07-25T17:19:27.714Z,26.89
2018-07-25T17:21:55.539Z,26.89
2018-07-25T17:24:23.344Z,26.88
2018-07-25T17:26:51.138Z,26.94
2018-07-25T17:29:18.952Z,26.95
2018-07-25T17:31:46.750Z,26.95
2018-07-25T17:34:14.534Z,26.94
2018-07-25T17:36:42.357Z,26.91
2018-07-25T17:39:11.137Z,26.90
2018-07-25T17:41:39.567Z,26.88
2018-07-25T17:44:07.350Z,26.87
2018-07-25T17:46:35.244Z,26.87
2018-07-25T17:49:03.039Z,26.88
2018-07-25T17:51:31.074Z,26.81
2018-07-25T17:53:58.849Z,26.84
2018-07-25T17:56:26.668Z,26.85
2018-07-25T17:58:54.621Z,26.81
2018-07-25T18:01:22.389Z,26.79
2018-07-25T18:03:50.415Z,26.79
2018-07-25T18:06:18.197Z,26.77
2018-07-25T18:08:46.413Z,26.77
2018-07-25T18:11:14.289Z,26.75
2018-07-25T18:13:47.547Z,26.71
2018-07-25T18:16:15.295Z,26.69
2018-07-25T18:18:43.014Z,26.66
2018-07-25T18:21:11.412Z,26.64
2018-07-25T18:23:39.769Z,26.56
2018-07-25T18:26:08.306Z,26.55
2018-07-25T18:28:36.157Z,26.51
2018-07-25T18:31:04.130Z,26.49
2018-07-25T18:33:32.397Z,26.45
2018-07-25T18:36:00.755Z,26.45
2018-07-25T18:38:28.620Z,26.41
2018-07-25T18:40:56.541Z,26.20
2018-07-25T18:43:24.633Z,26.33
2018-07-25T18:45:53.007Z,26.28
2018-07-25T18:48:20.825Z,26.25
2018-07-25T18:50:49.010Z,23.14
2018-07-25T18:53:17.152Z,26.06
2018-07-25T18:55:44.950Z,26.09
2018-07-25T18:58:13.011Z,26.09
2018-07-25T19:00:43.837Z,26.06
2018-07-25T19:03:11.682Z,25.91
2018-07-25T19:05:39.483Z,25.83
2018-07-25T19:08:07.207Z,25.84
2018-07-25T19:10:34.935Z,25.76
2018-07-25T19:13:05.511Z,25.82
2018-07-25T19:15:33.373Z,25.83
2018-07-25T19:18:01.683Z,25.74
2018-07-25T19:20:29.456Z,25.70
2018-07-25T19:22:57.239Z,25.46
2018-07-25T19:25:25.000Z,25.59
2018-07-25T19:27:52.818Z,25.48
2018-07-25T19:30:20.591Z,25.35
2018-07-25T19:32:48.725Z,25.46
2018-07-25T19:35:16.497Z,25.36
2018-07-25T19:37:44.253Z,25.39
2018-07-25T19:40:11.978Z,25.12
2018-07-25T19:42:39.693Z,24.99
2018-07-25T19:45:07.428Z,25.16
2018-07-25T19:47:35.178Z,25.13
2018-07-25T19:50:02.954Z,24.96
2018-07-25T19:52:30.649Z,25.13
2018-07-25T19:54:58.360Z,24.90
2018-07-25T19:57:26.082Z,25.10
2018-07-25T19:59:53.777Z,24.90
2018-07-25T20:02:21.482Z,25.00
2018-07-25T20:04:49.250Z,25.03
2018-07-25T20:07:17.955Z,24.97
2018-07-25T20:09:45.706Z,24.99
2018-07-25T20:12:13.456Z,24.87
2018-07-25T20:14:46.613Z,24.52
2018-07-25T20:17:15.109Z,24.65
2018-07-25T20:19:42.814Z,24.60
2018-07-25T20:22:10.602Z,24.45
2018-07-25T20:24:38.308Z,24.33
2018-07-25T20:27:06.137Z,24.52
2018-07-25T20:29:33.946Z,24.49
2018-07-25T20:32:01.729Z,24.53
2018-07-25T20:34:29.472Z,24.32
2018-07-25T20:36:57.251Z,24.31
2018-07-25T20:39:25.021Z,24.36
2018-07-25T20:41:52.805Z,24.27
2018-07-25T20:44:20.906Z,24.25
2018-07-25T20:46:48.717Z,24.03
2018-07-25T20:49:17.930Z,24.17
2018-07-25T20:51:45.709Z,24.28
2018-07-25T20:54:13.511Z,24.29
2018-07-25T20:59:03.357Z,24.22
2018-07-25T21:01:31.037Z,24.11
2018-07-25T21:03:58.710Z,23.99
2018-07-25T21:06:26.374Z,23.96
2018-07-25T21:08:54.084Z,24.01
2018-07-25T21:11:22.060Z,23.92
2018-07-25T21:13:49.770Z,23.87
2018-07-25T21:16:17.581Z,23.72
2018-07-25T21:18:45.265Z,23.75
2018-07-25T21:21:12.991Z,23.76
2018-07-25T21:23:40.655Z,23.78
2018-07-25T21:26:08.317Z,23.71
2018-07-25T21:28:35.982Z,23.69
2018-07-25T21:31:03.836Z,23.67
2018-07-25T21:33:31.520Z,23.60
2018-07-25T21:35:59.294Z,23.44
2018-07-25T21:38:27.026Z,23.38
2018-07-25T21:40:54.692Z,23.51
2018-07-25T21:43:22.344Z,23.35
2018-07-25T21:45:50.109Z,23.32
2018-07-25T21:48:17.929Z,23.06
2018-07-25T21:50:45.589Z,23.03
2018-07-25T21:53:13.450Z,23.22
2018-07-25T21:55:41.109Z,23.26
2018-07-25T21:58:08.784Z,23.22
2018-07-25T22:00:36.606Z,23.30
2018-07-25T22:03:04.271Z,23.15
2018-07-25T22:05:31.945Z,23.12
2018-07-25T22:07:59.629Z,23.04
2018-07-25T22:10:27.345Z,23.01
2018-07-25T22:12:55.501Z,23.22
2018-07-25T22:15:23.352Z,22.99
2018-07-25T22:17:51.043Z,23.06
2018-07-25T22:20:18.725Z,23.07
2018-07-25T22:22:46.396Z,23.03
2018-07-25T22:25:14.053Z,23.02
2018-07-25T22:27:41.768Z,23.14
2018-07-25T22:30:09.459Z,23.12
2018-07-25T22:32:37.137Z,23.06
2018-07-25T22:35:04.826Z,23.14
2018-07-25T22:37:32.496Z,23.06
2018-07-25T22:40:00.144Z,22.84
2018-07-25T22:42:27.821Z,22.93
2018-07-25T22:44:55.498Z,22.71
2018-07-25T22:47:23.163Z,22.72
2018-07-25T22:49:50.894Z,22.88
2018-07-25T22:52:18.599Z,22.85
2018-07-25T22:54:46.461Z,22.94
2018-07-25T22:57:14.113Z,22.95
2018-07-25T22:59:41.835Z,22.81
2018-07-25T23:02:09.505Z,22.93
2018-07-25T23:04:37.169Z,22.93
2018-07-25T23:07:05.316Z,22.90
2018-07-25T23:09:32.973Z,22.65
2018-07-25T23:12:00.659Z,22.64
2018-07-25T23:14:28.338Z,22.51
2018-07-25T23:16:56.017Z,22.37
2018-07-25T23:19:23.693Z,22.41
2018-07-25T23:21:51.396Z,22.30
2018-07-25T23:24:19.088Z,22.35
2018-07-25T23:26:46.752Z,22.48
2018-07-25T23:29:14.435Z,22.51
2018-07-25T23:31:42.078Z,22.52
2018-07-25T23:34:09.733Z,22.51
2018-07-25T23:36:37.459Z,22.42
2018-07-25T23:39:06.922Z,22.55
2018-07-25T23:41:34.605Z,22.56
2018-07-25T23:44:02.325Z,22.47
2018-07-25T23:46:30.009Z,22.53
2018-07-25T23:48:57.689Z,22.54
2018-07-25T23:51:25.421Z,22.47
2018-07-25T23:53:53.081Z,22.31
2018-07-25T23:56:20.797Z,22.34
2018-07-25T23:58:48.477Z,22.27
